sensor_id;sensor_type;location;lat;lon;timestamp;P1;durP1;ratioP1;P2;durP2;ratioP2
83284;SDS011;73191;50.074;8.488;2024-03-22T00:00:17;20.85;;;11.38;;
83284;SDS011;73191;50.074;8.488;2024-03-22T00:02:42;22.77;;;12.00;;
83284;SDS011;73191;50.074;8.488;2024-03-22T00:05:09;23.00;;;11.68;;
83284;SDS011;73191;50.074;8.488;2024-03-22T00:07:35;24.58;;;12.05;;
83284;SDS011;73191;50.074;8.488;2024-03-22T00:10:04;22.95;;;12.90;;
83284;SDS011;73191;50.074;8.488;2024-03-22T00:12:30;21.98;;;12.15;;
83284;SDS011;73191;50.074;8.488;2024-03-22T00:14:59;24.52;;;11.60;;
83284;SDS011;73191;50.074;8.488;2024-03-22T00:17:24;22.77;;;12.10;;
83284;SDS011;73191;50.074;8.488;2024-03-22T00:19:51;23.38;;;12.25;;
83284;SDS011;73191;50.074;8.488;2024-03-22T00:22:17;23.95;;;13.25;;
83284;SDS011;73191;50.074;8.488;2024-03-22T00:24:43;22.80;;;12.30;;
83284;SDS011;73191;50.074;8.488;2024-03-22T00:27:10;22.50;;;12.80;;
83284;SDS011;73191;50.074;8.488;2024-03-22T00:29:38;25.77;;;13.05;;
83284;SDS011;73191;50.074;8.488;2024-03-22T00:32:05;26.45;;;13.88;;
83284;SDS011;73191;50.074;8.488;2024-03-22T00:34:33;23.85;;;12.88;;
83284;SDS011;73191;50.074;8.488;2024-03-22T00:36:59;23.15;;;13.27;;
83284;SDS011;73191;50.074;8.488;2024-03-22T00:39:25;27.88;;;14.15;;
83284;SDS011;73191;50.074;8.488;2024-03-22T00:41:51;27.02;;;13.73;;
83284;SDS011;73191;50.074;8.488;2024-03-22T00:44:18;22.90;;;12.48;;
83284;SDS011;73191;50.074;8.488;2024-03-22T00:46:43;25.95;;;12.82;;
83284;SDS011;73191;50.074;8.488;2024-03-22T00:49:11;22.25;;;12.52;;
83284;SDS011;73191;50.074;8.488;2024-03-22T00:51:38;26.75;;;13.85;;
83284;SDS011;73191;50.074;8.488;2024-03-22T00:54:05;23.52;;;12.57;;
83284;SDS011;73191;50.074;8.488;2024-03-22T00:56:30;22.48;;;11.75;;
83284;SDS011;73191;50.074;8.488;2024-03-22T00:58:57;21.90;;;11.65;;
83284;SDS011;73191;50.074;8.488;2024-03-22T01:01:23;22.15;;;11.98;;
83284;SDS011;73191;50.074;8.488;2024-03-22T01:03:50;21.20;;;11.10;;
83284;SDS011;73191;50.074;8.488;2024-03-22T01:06:17;22.17;;;12.10;;
83284;SDS011;73191;50.074;8.488;2024-03-22T01:08:48;21.08;;;10.73;;
83284;SDS011;73191;50.074;8.488;2024-03-22T01:11:14;25.70;;;12.25;;
83284;SDS011;73191;50.074;8.488;2024-03-22T01:13:41;22.88;;;11.45;;
83284;SDS011;73191;50.074;8.488;2024-03-22T01:16:07;22.13;;;11.65;;
83284;SDS011;73191;50.074;8.488;2024-03-22T01:18:35;23.00;;;11.77;;
83284;SDS011;73191;50.074;8.488;2024-03-22T01:21:00;21.17;;;11.15;;
83284;SDS011;73191;50.074;8.488;2024-03-22T01:23:29;20.17;;;11.63;;
83284;SDS011;73191;50.074;8.488;2024-03-22T01:25:55;19.70;;;11.07;;
83284;SDS011;73191;50.074;8.488;2024-03-22T01:28:22;19.42;;;10.85;;
83284;SDS011;73191;50.074;8.488;2024-03-22T01:30:47;23.13;;;11.57;;
83284;SDS011;73191;50.074;8.488;2024-03-22T01:33:14;23.35;;;12.23;;
83284;SDS011;73191;50.074;8.488;2024-03-22T01:35:40;20.17;;;10.90;;
83284;SDS011;73191;50.074;8.488;2024-03-22T01:38:06;22.48;;;11.88;;
83284;SDS011;73191;50.074;8.488;2024-03-22T01:40:33;20.80;;;10.82;;
83284;SDS011;73191;50.074;8.488;2024-03-22T01:43:00;20.58;;;11.05;;
83284;SDS011;73191;50.074;8.488;2024-03-22T01:45:27;19.55;;;10.90;;
83284;SDS011;73191;50.074;8.488;2024-03-22T01:47:58;24.85;;;11.13;;
83284;SDS011;73191;50.074;8.488;2024-03-22T01:50:25;22.05;;;10.90;;
83284;SDS011;73191;50.074;8.488;2024-03-22T01:52:52;23.52;;;11.10;;
83284;SDS011;73191;50.074;8.488;2024-03-22T01:55:17;20.42;;;11.30;;
83284;SDS011;73191;50.074;8.488;2024-03-22T01:57:48;19.67;;;11.30;;
83284;SDS011;73191;50.074;8.488;2024-03-22T02:00:16;21.75;;;11.40;;
83284;SDS011;73191;50.074;8.488;2024-03-22T02:02:44;22.67;;;11.45;;
83284;SDS011;73191;50.074;8.488;2024-03-22T02:05:13;20.73;;;11.43;;
83284;SDS011;73191;50.074;8.488;2024-03-22T02:07:41;24.50;;;11.27;;
83284;SDS011;73191;50.074;8.488;2024-03-22T02:10:07;20.90;;;11.32;;
83284;SDS011;73191;50.074;8.488;2024-03-22T02:12:36;22.50;;;11.55;;
83284;SDS011;73191;50.074;8.488;2024-03-22T02:15:03;19.58;;;11.18;;
83284;SDS011;73191;50.074;8.488;2024-03-22T02:17:32;20.77;;;10.95;;
83284;SDS011;73191;50.074;8.488;2024-03-22T02:19:58;22.30;;;11.60;;
83284;SDS011;73191;50.074;8.488;2024-03-22T02:22:25;20.65;;;11.55;;
83284;SDS011;73191;50.074;8.488;2024-03-22T02:24:52;20.83;;;10.57;;
83284;SDS011;73191;50.074;8.488;2024-03-22T02:27:19;23.85;;;11.38;;
83284;SDS011;73191;50.074;8.488;2024-03-22T02:29:45;22.27;;;12.07;;
83284;SDS011;73191;50.074;8.488;2024-03-22T02:32:11;21.05;;;11.15;;
83284;SDS011;73191;50.074;8.488;2024-03-22T02:34:37;24.27;;;11.77;;
83284;SDS011;73191;50.074;8.488;2024-03-22T02:37:04;22.08;;;11.75;;
83284;SDS011;73191;50.074;8.488;2024-03-22T02:39:30;21.90;;;10.60;;
83284;SDS011;73191;50.074;8.488;2024-03-22T02:41:58;21.55;;;11.43;;
83284;SDS011;73191;50.074;8.488;2024-03-22T02:44:23;24.25;;;12.02;;
83284;SDS011;73191;50.074;8.488;2024-03-22T02:46:50;20.42;;;10.60;;
83284;SDS011;73191;50.074;8.488;2024-03-22T02:49:16;19.65;;;11.27;;
83284;SDS011;73191;50.074;8.488;2024-03-22T02:51:42;19.55;;;11.15;;
83284;SDS011;73191;50.074;8.488;2024-03-22T02:54:08;22.05;;;11.65;;
83284;SDS011;73191;50.074;8.488;2024-03-22T02:56:35;21.88;;;11.75;;
83284;SDS011;73191;50.074;8.488;2024-03-22T02:59:02;21.05;;;11.18;;
83284;SDS011;73191;50.074;8.488;2024-03-22T03:01:29;22.33;;;10.80;;
83284;SDS011;73191;50.074;8.488;2024-03-22T03:03:54;21.48;;;11.07;;
83284;SDS011;73191;50.074;8.488;2024-03-22T03:06:21;30.75;;;11.88;;
83284;SDS011;73191;50.074;8.488;2024-03-22T03:08:47;25.58;;;11.77;;
83284;SDS011;73191;50.074;8.488;2024-03-22T03:11:13;20.98;;;10.98;;
83284;SDS011;73191;50.074;8.488;2024-03-22T03:13:39;20.55;;;10.75;;
83284;SDS011;73191;50.074;8.488;2024-03-22T03:16:07;22.17;;;11.45;;
83284;SDS011;73191;50.074;8.488;2024-03-22T03:18:33;20.65;;;11.35;;
83284;SDS011;73191;50.074;8.488;2024-03-22T03:21:00;24.98;;;12.18;;
83284;SDS011;73191;50.074;8.488;2024-03-22T03:23:26;24.80;;;12.00;;
83284;SDS011;73191;50.074;8.488;2024-03-22T03:25:52;23.02;;;11.60;;
83284;SDS011;73191;50.074;8.488;2024-03-22T03:28:18;25.05;;;13.30;;
83284;SDS011;73191;50.074;8.488;2024-03-22T03:30:45;23.65;;;12.18;;
83284;SDS011;73191;50.074;8.488;2024-03-22T03:33:12;25.75;;;13.45;;
83284;SDS011;73191;50.074;8.488;2024-03-22T03:35:38;27.63;;;13.10;;
83284;SDS011;73191;50.074;8.488;2024-03-22T03:38:04;23.90;;;11.90;;
83284;SDS011;73191;50.074;8.488;2024-03-22T03:40:31;25.52;;;12.32;;
83284;SDS011;73191;50.074;8.488;2024-03-22T03:42:56;25.50;;;13.25;;
83284;SDS011;73191;50.074;8.488;2024-03-22T03:45:23;22.70;;;12.23;;
83284;SDS011;73191;50.074;8.488;2024-03-22T03:47:49;24.60;;;12.85;;
83284;SDS011;73191;50.074;8.488;2024-03-22T03:50:17;27.98;;;12.77;;
83284;SDS011;73191;50.074;8.488;2024-03-22T03:52:43;22.15;;;12.02;;
83284;SDS011;73191;50.074;8.488;2024-03-22T03:55:09;25.33;;;12.00;;
83284;SDS011;73191;50.074;8.488;2024-03-22T03:57:35;23.92;;;11.82;;
83284;SDS011;73191;50.074;8.488;2024-03-22T04:00:02;24.98;;;13.02;;
83284;SDS011;73191;50.074;8.488;2024-03-22T04:02:31;27.70;;;13.25;;
83284;SDS011;73191;50.074;8.488;2024-03-22T04:04:57;21.65;;;12.02;;
83284;SDS011;73191;50.074;8.488;2024-03-22T04:07:24;23.98;;;12.90;;
83284;SDS011;73191;50.074;8.488;2024-03-22T04:09:51;25.85;;;11.40;;
83284;SDS011;73191;50.074;8.488;2024-03-22T04:12:17;24.38;;;12.23;;
83284;SDS011;73191;50.074;8.488;2024-03-22T04:14:44;20.50;;;11.02;;
83284;SDS011;73191;50.074;8.488;2024-03-22T04:17:09;25.30;;;12.45;;
83284;SDS011;73191;50.074;8.488;2024-03-22T04:19:36;26.05;;;12.70;;
83284;SDS011;73191;50.074;8.488;2024-03-22T04:22:02;25.30;;;12.82;;
83284;SDS011;73191;50.074;8.488;2024-03-22T04:24:30;24.65;;;12.57;;
83284;SDS011;73191;50.074;8.488;2024-03-22T04:26:56;21.98;;;11.57;;
83284;SDS011;73191;50.074;8.488;2024-03-22T04:29:23;23.30;;;11.48;;
83284;SDS011;73191;50.074;8.488;2024-03-22T04:31:49;22.42;;;12.35;;
83284;SDS011;73191;50.074;8.488;2024-03-22T04:34:16;21.20;;;10.50;;
83284;SDS011;73191;50.074;8.488;2024-03-22T04:36:42;20.02;;;10.88;;
83284;SDS011;73191;50.074;8.488;2024-03-22T04:39:08;25.92;;;12.18;;
83284;SDS011;73191;50.074;8.488;2024-03-22T04:41:38;25.48;;;11.80;;
83284;SDS011;73191;50.074;8.488;2024-03-22T04:44:05;22.50;;;10.82;;
83284;SDS011;73191;50.074;8.488;2024-03-22T04:46:32;23.55;;;11.95;;
83284;SDS011;73191;50.074;8.488;2024-03-22T04:48:58;22.70;;;11.95;;
83284;SDS011;73191;50.074;8.488;2024-03-22T04:51:24;22.23;;;11.38;;
83284;SDS011;73191;50.074;8.488;2024-03-22T04:53:51;20.65;;;11.25;;
83284;SDS011;73191;50.074;8.488;2024-03-22T04:56:17;28.52;;;12.82;;
83284;SDS011;73191;50.074;8.488;2024-03-22T04:58:45;21.73;;;11.02;;
83284;SDS011;73191;50.074;8.488;2024-03-22T05:01:10;20.35;;;11.65;;
83284;SDS011;73191;50.074;8.488;2024-03-22T05:03:38;21.17;;;10.98;;
83284;SDS011;73191;50.074;8.488;2024-03-22T05:06:04;21.52;;;11.70;;
83284;SDS011;73191;50.074;8.488;2024-03-22T05:08:32;23.73;;;11.60;;
83284;SDS011;73191;50.074;8.488;2024-03-22T05:10:57;20.33;;;10.95;;
83284;SDS011;73191;50.074;8.488;2024-03-22T05:13:24;24.08;;;11.90;;
83284;SDS011;73191;50.074;8.488;2024-03-22T05:15:51;23.50;;;11.32;;
83284;SDS011;73191;50.074;8.488;2024-03-22T05:18:18;24.02;;;11.73;;
83284;SDS011;73191;50.074;8.488;2024-03-22T05:20:44;22.40;;;11.13;;
83284;SDS011;73191;50.074;8.488;2024-03-22T05:23:10;23.55;;;11.48;;
83284;SDS011;73191;50.074;8.488;2024-03-22T05:25:36;22.52;;;11.00;;
83284;SDS011;73191;50.074;8.488;2024-03-22T05:28:03;21.92;;;10.95;;
83284;SDS011;73191;50.074;8.488;2024-03-22T05:30:29;25.63;;;12.23;;
83284;SDS011;73191;50.074;8.488;2024-03-22T05:32:57;20.35;;;11.35;;
83284;SDS011;73191;50.074;8.488;2024-03-22T05:35:23;21.38;;;11.25;;
83284;SDS011;73191;50.074;8.488;2024-03-22T05:37:49;22.45;;;12.00;;
83284;SDS011;73191;50.074;8.488;2024-03-22T05:40:16;23.23;;;12.52;;
83284;SDS011;73191;50.074;8.488;2024-03-22T05:42:43;24.00;;;12.07;;
83284;SDS011;73191;50.074;8.488;2024-03-22T05:45:09;22.88;;;11.60;;
83284;SDS011;73191;50.074;8.488;2024-03-22T05:47:35;23.33;;;11.95;;
83284;SDS011;73191;50.074;8.488;2024-03-22T05:50:04;24.58;;;12.10;;
83284;SDS011;73191;50.074;8.488;2024-03-22T05:52:33;24.90;;;11.18;;
83284;SDS011;73191;50.074;8.488;2024-03-22T05:54:59;23.05;;;11.45;;
83284;SDS011;73191;50.074;8.488;2024-03-22T05:57:26;23.85;;;11.43;;
83284;SDS011;73191;50.074;8.488;2024-03-22T05:59:52;23.80;;;11.63;;
83284;SDS011;73191;50.074;8.488;2024-03-22T06:02:19;27.35;;;11.93;;
83284;SDS011;73191;50.074;8.488;2024-03-22T06:04:48;24.02;;;12.40;;
83284;SDS011;73191;50.074;8.488;2024-03-22T06:07:17;24.08;;;12.25;;
83284;SDS011;73191;50.074;8.488;2024-03-22T06:09:43;27.92;;;11.82;;
83284;SDS011;73191;50.074;8.488;2024-03-22T06:12:12;22.60;;;11.57;;
83284;SDS011;73191;50.074;8.488;2024-03-22T06:14:38;26.15;;;12.05;;
83284;SDS011;73191;50.074;8.488;2024-03-22T06:17:05;24.65;;;11.60;;
83284;SDS011;73191;50.074;8.488;2024-03-22T06:19:31;24.48;;;12.20;;
83284;SDS011;73191;50.074;8.488;2024-03-22T06:21:57;23.27;;;11.65;;
83284;SDS011;73191;50.074;8.488;2024-03-22T06:24:25;23.92;;;11.25;;
83284;SDS011;73191;50.074;8.488;2024-03-22T06:26:51;26.20;;;11.07;;
83284;SDS011;73191;50.074;8.488;2024-03-22T06:29:18;25.73;;;11.35;;
83284;SDS011;73191;50.074;8.488;2024-03-22T06:31:44;21.38;;;11.02;;
83284;SDS011;73191;50.074;8.488;2024-03-22T06:34:10;26.88;;;11.93;;
83284;SDS011;73191;50.074;8.488;2024-03-22T06:36:36;22.35;;;11.13;;
83284;SDS011;73191;50.074;8.488;2024-03-22T06:39:03;24.58;;;11.38;;
83284;SDS011;73191;50.074;8.488;2024-03-22T06:41:33;21.90;;;10.48;;
83284;SDS011;73191;50.074;8.488;2024-03-22T06:44:00;22.63;;;11.25;;
83284;SDS011;73191;50.074;8.488;2024-03-22T06:46:26;23.30;;;12.00;;
83284;SDS011;73191;50.074;8.488;2024-03-22T06:48:53;21.85;;;10.90;;
83284;SDS011;73191;50.074;8.488;2024-03-22T06:53:46;23.00;;;11.20;;
83284;SDS011;73191;50.074;8.488;2024-03-22T06:56:13;23.58;;;11.70;;
83284;SDS011;73191;50.074;8.488;2024-03-22T06:58:41;23.92;;;11.20;;
83284;SDS011;73191;50.074;8.488;2024-03-22T07:01:06;24.63;;;12.20;;
83284;SDS011;73191;50.074;8.488;2024-03-22T07:03:33;22.45;;;11.18;;
83284;SDS011;73191;50.074;8.488;2024-03-22T07:05:59;22.85;;;11.43;;
83284;SDS011;73191;50.074;8.488;2024-03-22T07:08:27;26.65;;;11.15;;
83284;SDS011;73191;50.074;8.488;2024-03-22T07:10:53;23.63;;;10.80;;
83284;SDS011;73191;50.074;8.488;2024-03-22T07:13:20;21.63;;;11.57;;
83284;SDS011;73191;50.074;8.488;2024-03-22T07:15:47;19.92;;;9.63;;
83284;SDS011;73191;50.074;8.488;2024-03-22T07:18:14;24.20;;;10.90;;
83284;SDS011;73191;50.074;8.488;2024-03-22T07:20:40;19.20;;;9.73;;
83284;SDS011;73191;50.074;8.488;2024-03-22T07:23:07;25.27;;;11.38;;
83284;SDS011;73191;50.074;8.488;2024-03-22T07:25:33;20.77;;;11.05;;
83284;SDS011;73191;50.074;8.488;2024-03-22T07:27:59;22.23;;;10.32;;
83284;SDS011;73191;50.074;8.488;2024-03-22T07:30:25;24.15;;;11.13;;
83284;SDS011;73191;50.074;8.488;2024-03-22T07:32:54;21.42;;;9.75;;
83284;SDS011;73191;50.074;8.488;2024-03-22T07:35:19;22.92;;;11.50;;
83284;SDS011;73191;50.074;8.488;2024-03-22T07:37:46;20.00;;;10.43;;
83284;SDS011;73191;50.074;8.488;2024-03-22T07:40:12;22.80;;;10.48;;
83284;SDS011;73191;50.074;8.488;2024-03-22T07:42:39;22.55;;;10.27;;
83284;SDS011;73191;50.074;8.488;2024-03-22T07:45:05;21.52;;;10.45;;
83284;SDS011;73191;50.074;8.488;2024-03-22T07:47:32;19.70;;;10.25;;
83284;SDS011;73191;50.074;8.488;2024-03-22T07:50:01;22.20;;;10.35;;
83284;SDS011;73191;50.074;8.488;2024-03-22T07:52:28;17.90;;;9.88;;
83284;SDS011;73191;50.074;8.488;2024-03-22T07:54:55;20.02;;;11.05;;
83284;SDS011;73191;50.074;8.488;2024-03-22T07:57:22;19.08;;;10.05;;
83284;SDS011;73191;50.074;8.488;2024-03-22T07:59:49;20.23;;;9.98;;
83284;SDS011;73191;50.074;8.488;2024-03-22T08:02:16;23.73;;;10.35;;
83284;SDS011;73191;50.074;8.488;2024-03-22T08:04:42;19.75;;;10.32;;
83284;SDS011;73191;50.074;8.488;2024-03-22T08:07:10;23.23;;;10.63;;
83284;SDS011;73191;50.074;8.488;2024-03-22T08:09:36;21.88;;;10.93;;
83284;SDS011;73191;50.074;8.488;2024-03-22T08:12:03;20.65;;;10.15;;
83284;SDS011;73191;50.074;8.488;2024-03-22T08:16:55;22.30;;;9.25;;
83284;SDS011;73191;50.074;8.488;2024-03-22T08:19:21;19.48;;;10.02;;
83284;SDS011;73191;50.074;8.488;2024-03-22T08:21:48;20.23;;;9.77;;
83284;SDS011;73191;50.074;8.488;2024-03-22T08:24:15;19.60;;;8.95;;
83284;SDS011;73191;50.074;8.488;2024-03-22T08:26:43;20.38;;;10.30;;
83284;SDS011;73191;50.074;8.488;2024-03-22T08:29:12;20.77;;;10.73;;
83284;SDS011;73191;50.074;8.488;2024-03-22T08:31:40;18.48;;;9.90;;
83284;SDS011;73191;50.074;8.488;2024-03-22T08:34:06;17.80;;;9.43;;
83284;SDS011;73191;50.074;8.488;2024-03-22T08:36:33;22.40;;;10.27;;
83284;SDS011;73191;50.074;8.488;2024-03-22T08:38:59;17.95;;;9.18;;
83284;SDS011;73191;50.074;8.488;2024-03-22T08:41:27;21.05;;;9.35;;
83284;SDS011;73191;50.074;8.488;2024-03-22T08:43:53;17.95;;;9.05;;
83284;SDS011;73191;50.074;8.488;2024-03-22T08:46:20;16.95;;;8.88;;
83284;SDS011;73191;50.074;8.488;2024-03-22T08:48:46;20.45;;;9.27;;
83284;SDS011;73191;50.074;8.488;2024-03-22T08:51:13;14.68;;;8.30;;
83284;SDS011;73191;50.074;8.488;2024-03-22T08:53:39;19.08;;;8.68;;
83284;SDS011;73191;50.074;8.488;2024-03-22T08:56:06;15.23;;;8.20;;
83284;SDS011;73191;50.074;8.488;2024-03-22T08:58:34;14.93;;;8.43;;
83284;SDS011;73191;50.074;8.488;2024-03-22T09:01:01;15.00;;;8.07;;
83284;SDS011;73191;50.074;8.488;2024-03-22T09:03:27;16.30;;;8.90;;
83284;SDS011;73191;50.074;8.488;2024-03-22T09:05:55;14.00;;;7.32;;
83284;SDS011;73191;50.074;8.488;2024-03-22T09:08:21;13.93;;;7.55;;
83284;SDS011;73191;50.074;8.488;2024-03-22T09:10:48;13.40;;;7.47;;
83284;SDS011;73191;50.074;8.488;2024-03-22T09:13:14;13.60;;;7.60;;
83284;SDS011;73191;50.074;8.488;2024-03-22T09:15:42;16.92;;;8.88;;
83284;SDS011;73191;50.074;8.488;2024-03-22T09:18:08;14.45;;;7.43;;
83284;SDS011;73191;50.074;8.488;2024-03-22T09:20:35;11.18;;;6.60;;
83284;SDS011;73191;50.074;8.488;2024-03-22T09:23:00;14.00;;;7.13;;
83284;SDS011;73191;50.074;8.488;2024-03-22T09:25:27;15.73;;;7.30;;
83284;SDS011;73191;50.074;8.488;2024-03-22T09:27:53;13.38;;;7.82;;
83284;SDS011;73191;50.074;8.488;2024-03-22T09:30:20;12.68;;;7.43;;
83284;SDS011;73191;50.074;8.488;2024-03-22T09:32:47;13.32;;;7.13;;
83284;SDS011;73191;50.074;8.488;2024-03-22T09:35:14;12.90;;;7.30;;
83284;SDS011;73191;50.074;8.488;2024-03-22T09:37:40;15.15;;;7.25;;
83284;SDS011;73191;50.074;8.488;2024-03-22T09:40:07;13.60;;;7.78;;
83284;SDS011;73191;50.074;8.488;2024-03-22T09:45:00;13.27;;;6.82;;
83284;SDS011;73191;50.074;8.488;2024-03-22T09:47:27;13.65;;;7.65;;
83284;SDS011;73191;50.074;8.488;2024-03-22T09:49:55;17.75;;;7.95;;
83284;SDS011;73191;50.074;8.488;2024-03-22T09:52:22;13.15;;;8.02;;
83284;SDS011;73191;50.074;8.488;2024-03-22T09:54:49;13.00;;;7.63;;
83284;SDS011;73191;50.074;8.488;2024-03-22T09:57:17;14.18;;;7.68;;
83284;SDS011;73191;50.074;8.488;2024-03-22T09:59:44;17.55;;;8.23;;
83284;SDS011;73191;50.074;8.488;2024-03-22T10:02:11;12.85;;;7.05;;
83284;SDS011;73191;50.074;8.488;2024-03-22T10:04:39;12.75;;;7.38;;
83284;SDS011;73191;50.074;8.488;2024-03-22T10:07:07;16.27;;;7.82;;
83284;SDS011;73191;50.074;8.488;2024-03-22T10:09:35;11.80;;;7.70;;
83284;SDS011;73191;50.074;8.488;2024-03-22T10:14:29;14.05;;;7.60;;
83284;SDS011;73191;50.074;8.488;2024-03-22T10:16:56;12.07;;;7.63;;
83284;SDS011;73191;50.074;8.488;2024-03-22T10:19:23;9.40;;;6.65;;
83284;SDS011;73191;50.074;8.488;2024-03-22T10:21:59;12.00;;;6.80;;
83284;SDS011;73191;50.074;8.488;2024-03-22T10:24:27;12.57;;;6.47;;
83284;SDS011;73191;50.074;8.488;2024-03-22T10:26:54;11.43;;;6.25;;
83284;SDS011;73191;50.074;8.488;2024-03-22T10:29:21;14.55;;;6.68;;
83284;SDS011;73191;50.074;8.488;2024-03-22T10:31:47;10.55;;;6.22;;
83284;SDS011;73191;50.074;8.488;2024-03-22T10:34:14;10.98;;;6.50;;
83284;SDS011;73191;50.074;8.488;2024-03-22T10:36:40;11.68;;;6.90;;
83284;SDS011;73191;50.074;8.488;2024-03-22T10:39:07;11.73;;;6.80;;
83284;SDS011;73191;50.074;8.488;2024-03-22T10:41:35;12.35;;;6.80;;
83284;SDS011;73191;50.074;8.488;2024-03-22T10:44:02;12.35;;;6.43;;
83284;SDS011;73191;50.074;8.488;2024-03-22T10:46:29;10.98;;;6.75;;
83284;SDS011;73191;50.074;8.488;2024-03-22T10:48:56;14.10;;;7.15;;
83284;SDS011;73191;50.074;8.488;2024-03-22T10:51:23;12.80;;;7.10;;
83284;SDS011;73191;50.074;8.488;2024-03-22T10:53:50;10.65;;;5.43;;
83284;SDS011;73191;50.074;8.488;2024-03-22T10:56:16;9.65;;;6.05;;
83284;SDS011;73191;50.074;8.488;2024-03-22T10:58:45;10.80;;;6.22;;
83284;SDS011;73191;50.074;8.488;2024-03-22T11:01:21;10.60;;;6.05;;
83284;SDS011;73191;50.074;8.488;2024-03-22T11:03:47;9.48;;;6.10;;
83284;SDS011;73191;50.074;8.488;2024-03-22T11:06:17;11.82;;;6.38;;
83284;SDS011;73191;50.074;8.488;2024-03-22T11:08:43;10.93;;;6.90;;
83284;SDS011;73191;50.074;8.488;2024-03-22T11:11:11;11.73;;;6.05;;
83284;SDS011;73191;50.074;8.488;2024-03-22T11:13:38;11.15;;;6.38;;
83284;SDS011;73191;50.074;8.488;2024-03-22T11:16:07;11.23;;;6.03;;
83284;SDS011;73191;50.074;8.488;2024-03-22T11:18:35;9.60;;;6.10;;
83284;SDS011;73191;50.074;8.488;2024-03-22T11:21:02;9.65;;;6.28;;
83284;SDS011;73191;50.074;8.488;2024-03-22T11:23:29;9.52;;;6.22;;
83284;SDS011;73191;50.074;8.488;2024-03-22T11:25:56;12.38;;;6.40;;
83284;SDS011;73191;50.074;8.488;2024-03-22T11:28:22;9.80;;;6.72;;
83284;SDS011;73191;50.074;8.488;2024-03-22T11:30:49;11.68;;;6.45;;
83284;SDS011;73191;50.074;8.488;2024-03-22T11:33:17;13.15;;;6.82;;
83284;SDS011;73191;50.074;8.488;2024-03-22T11:35:44;11.27;;;6.47;;
83284;SDS011;73191;50.074;8.488;2024-03-22T11:38:09;11.80;;;6.78;;
83284;SDS011;73191;50.074;8.488;2024-03-22T11:40:36;11.85;;;6.50;;
83284;SDS011;73191;50.074;8.488;2024-03-22T11:43:02;12.45;;;6.63;;
83284;SDS011;73191;50.074;8.488;2024-03-22T11:45:30;12.10;;;6.20;;
83284;SDS011;73191;50.074;8.488;2024-03-22T11:48:01;14.02;;;8.50;;
83284;SDS011;73191;50.074;8.488;2024-03-22T11:50:29;17.45;;;10.48;;
83284;SDS011;73191;50.074;8.488;2024-03-22T11:52:55;11.93;;;7.85;;
83284;SDS011;73191;50.074;8.488;2024-03-22T11:55:22;21.30;;;12.40;;
83284;SDS011;73191;50.074;8.488;2024-03-22T11:57:48;29.88;;;23.35;;
83284;SDS011;73191;50.074;8.488;2024-03-22T12:00:16;17.50;;;9.25;;
83284;SDS011;73191;50.074;8.488;2024-03-22T12:02:44;12.57;;;6.80;;
83284;SDS011;73191;50.074;8.488;2024-03-22T12:05:11;11.05;;;6.40;;
83284;SDS011;73191;50.074;8.488;2024-03-22T12:07:38;11.07;;;6.50;;
83284;SDS011;73191;50.074;8.488;2024-03-22T12:10:06;12.68;;;6.20;;
83284;SDS011;73191;50.074;8.488;2024-03-22T12:12:32;10.73;;;6.05;;
83284;SDS011;73191;50.074;8.488;2024-03-22T12:14:59;11.43;;;6.40;;
83284;SDS011;73191;50.074;8.488;2024-03-22T12:17:24;11.98;;;7.38;;
83284;SDS011;73191;50.074;8.488;2024-03-22T12:19:51;9.63;;;5.43;;
83284;SDS011;73191;50.074;8.488;2024-03-22T12:22:18;13.80;;;6.40;;
83284;SDS011;73191;50.074;8.488;2024-03-22T12:24:46;9.93;;;6.20;;
83284;SDS011;73191;50.074;8.488;2024-03-22T12:27:12;11.88;;;6.95;;
83284;SDS011;73191;50.074;8.488;2024-03-22T12:29:38;16.50;;;7.18;;
83284;SDS011;73191;50.074;8.488;2024-03-22T12:34:32;10.82;;;6.75;;
83284;SDS011;73191;50.074;8.488;2024-03-22T12:36:59;11.57;;;6.72;;
83284;SDS011;73191;50.074;8.488;2024-03-22T12:39:26;11.00;;;6.38;;
83284;SDS011;73191;50.074;8.488;2024-03-22T12:41:53;11.88;;;7.63;;
83284;SDS011;73191;50.074;8.488;2024-03-22T12:44:21;12.48;;;6.97;;
83284;SDS011;73191;50.074;8.488;2024-03-22T12:46:47;11.98;;;6.57;;
83284;SDS011;73191;50.074;8.488;2024-03-22T12:49:16;11.10;;;6.13;;
83284;SDS011;73191;50.074;8.488;2024-03-22T12:51:43;16.33;;;6.47;;
83284;SDS011;73191;50.074;8.488;2024-03-22T12:54:11;14.65;;;6.88;;
83284;SDS011;73191;50.074;8.488;2024-03-22T12:56:40;10.52;;;6.88;;
83284;SDS011;73191;50.074;8.488;2024-03-22T12:59:08;14.43;;;7.82;;
83284;SDS011;73191;50.074;8.488;2024-03-22T13:01:34;14.88;;;7.78;;
83284;SDS011;73191;50.074;8.488;2024-03-22T13:04:02;11.68;;;6.82;;
83284;SDS011;73191;50.074;8.488;2024-03-22T13:08:54;11.82;;;6.60;;
83284;SDS011;73191;50.074;8.488;2024-03-22T13:13:47;12.68;;;6.80;;
83284;SDS011;73191;50.074;8.488;2024-03-22T13:18:41;11.55;;;6.38;;
83284;SDS011;73191;50.074;8.488;2024-03-22T13:23:33;10.93;;;6.35;;
83284;SDS011;73191;50.074;8.488;2024-03-22T13:28:28;11.38;;;6.85;;
83284;SDS011;73191;50.074;8.488;2024-03-22T13:33:26;12.50;;;6.78;;
83284;SDS011;73191;50.074;8.488;2024-03-22T13:35:52;11.32;;;7.32;;
83284;SDS011;73191;50.074;8.488;2024-03-22T13:38:19;12.00;;;6.80;;
83284;SDS011;73191;50.074;8.488;2024-03-22T13:40:52;11.07;;;7.00;;
83284;SDS011;73191;50.074;8.488;2024-03-22T13:43:19;12.35;;;6.85;;
83284;SDS011;73191;50.074;8.488;2024-03-22T13:45:44;11.65;;;6.95;;
83284;SDS011;73191;50.074;8.488;2024-03-22T13:48:12;13.43;;;7.00;;
83284;SDS011;73191;50.074;8.488;2024-03-22T13:50:39;13.93;;;7.20;;
83284;SDS011;73191;50.074;8.488;2024-03-22T13:53:06;12.75;;;7.60;;
83284;SDS011;73191;50.074;8.488;2024-03-22T13:55:32;15.73;;;7.53;;
83284;SDS011;73191;50.074;8.488;2024-03-22T13:57:59;14.77;;;7.65;;
83284;SDS011;73191;50.074;8.488;2024-03-22T14:00:26;13.80;;;7.03;;
83284;SDS011;73191;50.074;8.488;2024-03-22T14:02:53;12.77;;;7.03;;
83284;SDS011;73191;50.074;8.488;2024-03-22T14:05:20;12.93;;;7.50;;
83284;SDS011;73191;50.074;8.488;2024-03-22T14:07:50;10.98;;;6.97;;
83284;SDS011;73191;50.074;8.488;2024-03-22T14:10:16;13.63;;;6.57;;
83284;SDS011;73191;50.074;8.488;2024-03-22T14:12:43;10.93;;;7.28;;
83284;SDS011;73191;50.074;8.488;2024-03-22T14:15:10;10.05;;;7.32;;
83284;SDS011;73191;50.074;8.488;2024-03-22T14:17:37;12.00;;;7.60;;
83284;SDS011;73191;50.074;8.488;2024-03-22T14:20:03;11.93;;;7.35;;
83284;SDS011;73191;50.074;8.488;2024-03-22T14:22:37;15.45;;;7.15;;
83284;SDS011;73191;50.074;8.488;2024-03-22T14:25:05;13.90;;;7.10;;
83284;SDS011;73191;50.074;8.488;2024-03-22T14:27:32;12.68;;;7.53;;
83284;SDS011;73191;50.074;8.488;2024-03-22T14:29:57;13.77;;;7.63;;
83284;SDS011;73191;50.074;8.488;2024-03-22T14:32:24;11.50;;;7.70;;
83284;SDS011;73191;50.074;8.488;2024-03-22T14:37:16;14.00;;;8.40;;
83284;SDS011;73191;50.074;8.488;2024-03-22T14:39:42;14.35;;;7.78;;
83284;SDS011;73191;50.074;8.488;2024-03-22T14:42:10;17.48;;;8.57;;
83284;SDS011;73191;50.074;8.488;2024-03-22T14:44:36;16.25;;;8.65;;
83284;SDS011;73191;50.074;8.488;2024-03-22T14:47:03;13.65;;;8.02;;
83284;SDS011;73191;50.074;8.488;2024-03-22T14:51:55;17.67;;;8.90;;
83284;SDS011;73191;50.074;8.488;2024-03-22T14:54:21;18.00;;;9.13;;
83284;SDS011;73191;50.074;8.488;2024-03-22T14:56:48;15.65;;;9.52;;